Fall City, Washington
Current Conditions -  °F | °C
As of 9:12 PM on Thursday 27 Nov 2014 (Local Time) from KRNT Reporting Station
Overcast Overcast  
Wind Chill: 56°   Ceiling: 3000
Heat Index: 56°   Visibility: 10mi
Dew Point: 50°   Wind: 9mph
Humidity: 80%   Direction: 150°SSE
Pressure: 29.73"   Gusts: 17mph
Location:  47.57°N, 121.89°W
Report Text: KRNT 280512Z AUTO 15008G15KT 10SM FEW025 OVC030 13/10 A2973 RMK AO2 T01330100
Loading
Personal Weather Stations






























Interactive Weather Map New forecast layout! Learn more

10-Day Weather Forecast

Advertisements
Track Severe Weather on mobile